sensor_id;sensor_type;location;lat;lon;timestamp;P1;durP1;ratioP1;P2;durP2;ratioP2
40453;SDS011;26160;51.858;4.398;2023-02-12T00:04:34;15.03;;;10.13;;
40453;SDS011;26160;51.858;4.398;2023-02-12T00:07:07;12.07;;;9.97;;
40453;SDS011;26160;51.858;4.398;2023-02-12T00:09:39;12.27;;;9.73;;
40453;SDS011;26160;51.858;4.398;2023-02-12T00:12:11;15.43;;;10.20;;
40453;SDS011;26160;51.858;4.398;2023-02-12T00:17:35;12.73;;;8.87;;
40453;SDS011;26160;51.858;4.398;2023-02-12T00:20:06;12.47;;;8.90;;
40453;SDS011;26160;51.858;4.398;2023-02-12T00:25:09;15.50;;;9.50;;
40453;SDS011;26160;51.858;4.398;2023-02-12T00:27:48;13.67;;;10.03;;
40453;SDS011;26160;51.858;4.398;2023-02-12T00:40:38;11.60;;;9.67;;
40453;SDS011;26160;51.858;4.398;2023-02-12T00:43:04;14.97;;;10.53;;
40453;SDS011;26160;51.858;4.398;2023-02-12T00:53:18;16.67;;;11.17;;
40453;SDS011;26160;51.858;4.398;2023-02-12T01:08:44;12.37;;;10.40;;
40453;SDS011;26160;51.858;4.398;2023-02-12T02:03:18;11.23;;;9.03;;
40453;SDS011;26160;51.858;4.398;2023-02-12T02:05:55;11.90;;;8.97;;
40453;SDS011;26160;51.858;4.398;2023-02-12T02:08:29;14.10;;;9.30;;
40453;SDS011;26160;51.858;4.398;2023-02-12T02:10:56;11.30;;;8.93;;
40453;SDS011;26160;51.858;4.398;2023-02-12T02:13:22;10.00;;;8.63;;
40453;SDS011;26160;51.858;4.398;2023-02-12T02:16:19;13.60;;;9.17;;
40453;SDS011;26160;51.858;4.398;2023-02-12T02:24:39;11.67;;;8.80;;
40453;SDS011;26160;51.858;4.398;2023-02-12T02:30:39;10.50;;;8.43;;
40453;SDS011;26160;51.858;4.398;2023-02-12T02:36:24;11.13;;;8.73;;
40453;SDS011;26160;51.858;4.398;2023-02-12T02:38:56;10.30;;;8.83;;
40453;SDS011;26160;51.858;4.398;2023-02-12T02:41:47;10.47;;;8.73;;
40453;SDS011;26160;51.858;4.398;2023-02-12T02:44:34;10.27;;;8.33;;
40453;SDS011;26160;51.858;4.398;2023-02-12T02:47:14;9.67;;;8.30;;
40453;SDS011;26160;51.858;4.398;2023-02-12T02:49:45;10.87;;;8.80;;
40453;SDS011;26160;51.858;4.398;2023-02-12T02:52:17;10.15;;;7.90;;
40453;SDS011;26160;51.858;4.398;2023-02-12T02:55:00;12.43;;;8.65;;
40453;SDS011;26160;51.858;4.398;2023-02-12T02:57:34;11.05;;;8.60;;
40453;SDS011;26160;51.858;4.398;2023-02-12T03:02:53;11.40;;;8.60;;
40453;SDS011;26160;51.858;4.398;2023-02-12T03:05:28;9.80;;;8.10;;
40453;SDS011;26160;51.858;4.398;2023-02-12T03:10:49;9.57;;;8.50;;
40453;SDS011;26160;51.858;4.398;2023-02-12T03:13:45;10.13;;;8.97;;
40453;SDS011;26160;51.858;4.398;2023-02-12T03:16:22;8.47;;;7.57;;
40453;SDS011;26160;51.858;4.398;2023-02-12T03:18:54;10.17;;;8.03;;
40453;SDS011;26160;51.858;4.398;2023-02-12T03:21:25;11.23;;;8.10;;
40453;SDS011;26160;51.858;4.398;2023-02-12T03:27:01;8.83;;;7.53;;
40453;SDS011;26160;51.858;4.398;2023-02-12T03:29:28;8.95;;;7.63;;
40453;SDS011;26160;51.858;4.398;2023-02-12T03:31:57;10.63;;;7.80;;
40453;SDS011;26160;51.858;4.398;2023-02-12T03:34:43;8.50;;;7.43;;
40453;SDS011;26160;51.858;4.398;2023-02-12T03:37:25;9.73;;;7.67;;
40453;SDS011;26160;51.858;4.398;2023-02-12T03:40:04;8.20;;;7.40;;
40453;SDS011;26160;51.858;4.398;2023-02-12T03:48:11;8.40;;;7.13;;
40453;SDS011;26160;51.858;4.398;2023-02-12T03:50:44;7.90;;;7.20;;
40453;SDS011;26160;51.858;4.398;2023-02-12T03:53:35;8.43;;;7.57;;
40453;SDS011;26160;51.858;4.398;2023-02-12T03:56:03;9.20;;;7.73;;
40453;SDS011;26160;51.858;4.398;2023-02-12T04:01:02;9.17;;;8.27;;
40453;SDS011;26160;51.858;4.398;2023-02-12T04:03:29;9.27;;;6.80;;
40453;SDS011;26160;51.858;4.398;2023-02-12T04:05:55;7.43;;;6.63;;
40453;SDS011;26160;51.858;4.398;2023-02-12T04:08:21;9.80;;;7.13;;
40453;SDS011;26160;51.858;4.398;2023-02-12T04:16:28;8.73;;;6.93;;
40453;SDS011;26160;51.858;4.398;2023-02-12T04:19:05;7.00;;;6.30;;
40453;SDS011;26160;51.858;4.398;2023-02-12T04:21:39;8.57;;;6.60;;
40453;SDS011;26160;51.858;4.398;2023-02-12T04:26:48;8.97;;;6.63;;
40453;SDS011;26160;51.858;4.398;2023-02-12T04:32:14;7.13;;;6.47;;
40453;SDS011;26160;51.858;4.398;2023-02-12T04:40:31;8.70;;;6.53;;
40453;SDS011;26160;51.858;4.398;2023-02-12T04:42:57;7.53;;;6.03;;
40453;SDS011;26160;51.858;4.398;2023-02-12T04:45:25;8.17;;;6.57;;
40453;SDS011;26160;51.858;4.398;2023-02-12T04:47:56;10.73;;;6.70;;
40453;SDS011;26160;51.858;4.398;2023-02-12T04:50:22;9.83;;;6.83;;
40453;SDS011;26160;51.858;4.398;2023-02-12T04:52:48;8.07;;;6.23;;
40453;SDS011;26160;51.858;4.398;2023-02-12T04:55:15;10.07;;;6.83;;
40453;SDS011;26160;51.858;4.398;2023-02-12T04:57:41;7.13;;;6.43;;
40453;SDS011;26160;51.858;4.398;2023-02-12T05:00:11;7.90;;;6.93;;
40453;SDS011;26160;51.858;4.398;2023-02-12T05:02:38;8.00;;;6.33;;
40453;SDS011;26160;51.858;4.398;2023-02-12T05:05:05;6.87;;;6.20;;
40453;SDS011;26160;51.858;4.398;2023-02-12T05:07:31;9.07;;;5.90;;
40453;SDS011;26160;51.858;4.398;2023-02-12T05:09:57;7.47;;;6.07;;
40453;SDS011;26160;51.858;4.398;2023-02-12T05:12:23;8.27;;;5.83;;
40453;SDS011;26160;51.858;4.398;2023-02-12T05:14:49;9.67;;;7.17;;
40453;SDS011;26160;51.858;4.398;2023-02-12T05:17:15;8.40;;;7.07;;
40453;SDS011;26160;51.858;4.398;2023-02-12T05:19:41;8.17;;;7.00;;
40453;SDS011;26160;51.858;4.398;2023-02-12T05:22:07;9.03;;;7.13;;
40453;SDS011;26160;51.858;4.398;2023-02-12T05:24:33;7.87;;;6.53;;
40453;SDS011;26160;51.858;4.398;2023-02-12T05:26:59;7.43;;;6.67;;
40453;SDS011;26160;51.858;4.398;2023-02-12T05:29:25;8.40;;;7.47;;
40453;SDS011;26160;51.858;4.398;2023-02-12T05:31:53;8.60;;;7.70;;
40453;SDS011;26160;51.858;4.398;2023-02-12T05:34:20;9.50;;;7.83;;
40453;SDS011;26160;51.858;4.398;2023-02-12T05:36:46;7.80;;;6.37;;
40453;SDS011;26160;51.858;4.398;2023-02-12T05:39:12;8.23;;;6.97;;
40453;SDS011;26160;51.858;4.398;2023-02-12T05:41:39;8.73;;;7.30;;
40453;SDS011;26160;51.858;4.398;2023-02-12T05:44:05;8.60;;;7.40;;
40453;SDS011;26160;51.858;4.398;2023-02-12T05:46:31;8.53;;;7.40;;
40453;SDS011;26160;51.858;4.398;2023-02-12T05:48:57;8.33;;;7.43;;
40453;SDS011;26160;51.858;4.398;2023-02-12T05:51:24;10.10;;;8.00;;
40453;SDS011;26160;51.858;4.398;2023-02-12T05:53:54;8.10;;;7.20;;
40453;SDS011;26160;51.858;4.398;2023-02-12T05:56:24;9.73;;;7.20;;
40453;SDS011;26160;51.858;4.398;2023-02-12T05:58:53;9.60;;;7.90;;
40453;SDS011;26160;51.858;4.398;2023-02-12T06:01:22;8.93;;;7.63;;
40453;SDS011;26160;51.858;4.398;2023-02-12T06:03:50;8.00;;;7.23;;
40453;SDS011;26160;51.858;4.398;2023-02-12T06:06:16;9.10;;;7.33;;
40453;SDS011;26160;51.858;4.398;2023-02-12T06:08:43;8.17;;;7.37;;
40453;SDS011;26160;51.858;4.398;2023-02-12T06:11:13;8.43;;;7.47;;
40453;SDS011;26160;51.858;4.398;2023-02-12T06:13:40;8.87;;;7.77;;
40453;SDS011;26160;51.858;4.398;2023-02-12T06:16:06;8.10;;;7.30;;
40453;SDS011;26160;51.858;4.398;2023-02-12T06:18:40;8.00;;;7.20;;
40453;SDS011;26160;51.858;4.398;2023-02-12T06:21:06;8.97;;;7.63;;
40453;SDS011;26160;51.858;4.398;2023-02-12T06:23:32;8.73;;;7.30;;
40453;SDS011;26160;51.858;4.398;2023-02-12T06:25:58;9.47;;;7.83;;
40453;SDS011;26160;51.858;4.398;2023-02-12T06:28:24;8.10;;;7.03;;
40453;SDS011;26160;51.858;4.398;2023-02-12T06:30:51;9.70;;;7.60;;
40453;SDS011;26160;51.858;4.398;2023-02-12T06:33:17;9.87;;;8.40;;
40453;SDS011;26160;51.858;4.398;2023-02-12T06:35:43;9.63;;;8.60;;
40453;SDS011;26160;51.858;4.398;2023-02-12T06:38:09;8.77;;;7.87;;
40453;SDS011;26160;51.858;4.398;2023-02-12T06:40:35;10.93;;;8.53;;
40453;SDS011;26160;51.858;4.398;2023-02-12T06:43:01;10.57;;;8.40;;
40453;SDS011;26160;51.858;4.398;2023-02-12T06:45:28;12.97;;;9.70;;
40453;SDS011;26160;51.858;4.398;2023-02-12T06:47:54;10.77;;;8.80;;
40453;SDS011;26160;51.858;4.398;2023-02-12T06:50:20;9.30;;;8.17;;
40453;SDS011;26160;51.858;4.398;2023-02-12T06:52:46;9.73;;;8.67;;
40453;SDS011;26160;51.858;4.398;2023-02-12T06:55:12;10.57;;;9.27;;
40453;SDS011;26160;51.858;4.398;2023-02-12T06:57:38;9.93;;;8.10;;
40453;SDS011;26160;51.858;4.398;2023-02-12T07:00:04;11.73;;;9.67;;
40453;SDS011;26160;51.858;4.398;2023-02-12T07:02:31;9.97;;;8.97;;
40453;SDS011;26160;51.858;4.398;2023-02-12T07:04:57;9.10;;;8.23;;
40453;SDS011;26160;51.858;4.398;2023-02-12T07:07:23;8.97;;;8.17;;
40453;SDS011;26160;51.858;4.398;2023-02-12T07:09:49;10.47;;;9.37;;
40453;SDS011;26160;51.858;4.398;2023-02-12T07:12:15;12.43;;;8.63;;
40453;SDS011;26160;51.858;4.398;2023-02-12T07:14:41;13.70;;;8.43;;
40453;SDS011;26160;51.858;4.398;2023-02-12T07:17:07;10.63;;;8.60;;
40453;SDS011;26160;51.858;4.398;2023-02-12T07:19:34;9.87;;;8.50;;
40453;SDS011;26160;51.858;4.398;2023-02-12T07:22:01;8.83;;;7.60;;
40453;SDS011;26160;51.858;4.398;2023-02-12T07:24:27;9.60;;;8.03;;
40453;SDS011;26160;51.858;4.398;2023-02-12T07:26:54;12.37;;;9.60;;
40453;SDS011;26160;51.858;4.398;2023-02-12T07:29:20;10.70;;;8.10;;
40453;SDS011;26160;51.858;4.398;2023-02-12T07:31:46;11.00;;;9.07;;
40453;SDS011;26160;51.858;4.398;2023-02-12T07:34:12;10.10;;;9.00;;
40453;SDS011;26160;51.858;4.398;2023-02-12T07:36:38;12.53;;;10.20;;
40453;SDS011;26160;51.858;4.398;2023-02-12T07:39:04;10.40;;;9.40;;
40453;SDS011;26160;51.858;4.398;2023-02-12T07:41:32;12.80;;;10.10;;
40453;SDS011;26160;51.858;4.398;2023-02-12T07:44:01;12.83;;;10.47;;
40453;SDS011;26160;51.858;4.398;2023-02-12T07:46:32;13.57;;;9.67;;
40453;SDS011;26160;51.858;4.398;2023-02-12T07:49:01;11.13;;;8.77;;
40453;SDS011;26160;51.858;4.398;2023-02-12T07:51:30;13.53;;;10.10;;
40453;SDS011;26160;51.858;4.398;2023-02-12T07:53:57;10.47;;;9.33;;
40453;SDS011;26160;51.858;4.398;2023-02-12T07:56:26;13.43;;;9.20;;
40453;SDS011;26160;51.858;4.398;2023-02-12T07:59:02;14.30;;;10.23;;
40453;SDS011;26160;51.858;4.398;2023-02-12T08:01:31;12.60;;;9.75;;
40453;SDS011;26160;51.858;4.398;2023-02-12T08:04:05;13.77;;;10.33;;
40453;SDS011;26160;51.858;4.398;2023-02-12T08:06:34;14.10;;;9.97;;
40453;SDS011;26160;51.858;4.398;2023-02-12T08:09:03;10.67;;;9.57;;
40453;SDS011;26160;51.858;4.398;2023-02-12T08:11:30;12.47;;;10.20;;
40453;SDS011;26160;51.858;4.398;2023-02-12T08:13:58;11.73;;;9.27;;
40453;SDS011;26160;51.858;4.398;2023-02-12T08:16:25;12.33;;;9.67;;
40453;SDS011;26160;51.858;4.398;2023-02-12T08:18:53;12.67;;;10.77;;
40453;SDS011;26160;51.858;4.398;2023-02-12T08:21:20;11.77;;;10.10;;
40453;SDS011;26160;51.858;4.398;2023-02-12T08:23:49;11.93;;;10.17;;
40453;SDS011;26160;51.858;4.398;2023-02-12T08:26:20;13.20;;;9.47;;
40453;SDS011;26160;51.858;4.398;2023-02-12T08:28:53;12.03;;;8.93;;
40453;SDS011;26160;51.858;4.398;2023-02-12T08:31:22;13.63;;;9.80;;
40453;SDS011;26160;51.858;4.398;2023-02-12T08:33:51;10.57;;;9.47;;
40453;SDS011;26160;51.858;4.398;2023-02-12T08:36:19;11.63;;;9.83;;
40453;SDS011;26160;51.858;4.398;2023-02-12T08:38:52;11.03;;;9.80;;
40453;SDS011;26160;51.858;4.398;2023-02-12T08:41:22;12.10;;;10.10;;
40453;SDS011;26160;51.858;4.398;2023-02-12T08:43:51;13.25;;;10.45;;
40453;SDS011;26160;51.858;4.398;2023-02-12T08:46:21;13.23;;;10.00;;
40453;SDS011;26160;51.858;4.398;2023-02-12T08:48:59;11.43;;;9.70;;
40453;SDS011;26160;51.858;4.398;2023-02-12T08:51:27;12.73;;;9.10;;
40453;SDS011;26160;51.858;4.398;2023-02-12T08:53:57;12.63;;;9.87;;
40453;SDS011;26160;51.858;4.398;2023-02-12T08:56:28;12.13;;;9.33;;
40453;SDS011;26160;51.858;4.398;2023-02-12T08:58:56;15.97;;;10.77;;
40453;SDS011;26160;51.858;4.398;2023-02-12T09:01:24;12.27;;;9.90;;
40453;SDS011;26160;51.858;4.398;2023-02-12T09:03:51;12.83;;;10.13;;
40453;SDS011;26160;51.858;4.398;2023-02-12T09:06:18;12.53;;;10.47;;
40453;SDS011;26160;51.858;4.398;2023-02-12T09:08:45;10.90;;;9.80;;
40453;SDS011;26160;51.858;4.398;2023-02-12T09:11:13;12.07;;;10.77;;
40453;SDS011;26160;51.858;4.398;2023-02-12T09:16:22;11.70;;;9.23;;
40453;SDS011;26160;51.858;4.398;2023-02-12T09:18:48;12.93;;;10.93;;
40453;SDS011;26160;51.858;4.398;2023-02-12T09:21:14;12.23;;;10.53;;
40453;SDS011;26160;51.858;4.398;2023-02-12T09:23:44;14.33;;;10.60;;
40453;SDS011;26160;51.858;4.398;2023-02-12T09:26:12;11.07;;;9.80;;
40453;SDS011;26160;51.858;4.398;2023-02-12T09:28:40;12.73;;;10.80;;
40453;SDS011;26160;51.858;4.398;2023-02-12T09:31:07;11.47;;;9.43;;
40453;SDS011;26160;51.858;4.398;2023-02-12T09:33:38;12.10;;;10.18;;
40453;SDS011;26160;51.858;4.398;2023-02-12T09:36:06;12.63;;;9.90;;
40453;SDS011;26160;51.858;4.398;2023-02-12T09:38:33;9.90;;;8.90;;
40453;SDS011;26160;51.858;4.398;2023-02-12T09:49:08;14.50;;;10.30;;
40453;SDS011;26160;51.858;4.398;2023-02-12T09:51:53;11.43;;;9.97;;
40453;SDS011;26160;51.858;4.398;2023-02-12T09:54:21;12.20;;;10.73;;
40453;SDS011;26160;51.858;4.398;2023-02-12T09:56:49;11.20;;;9.80;;
40453;SDS011;26160;51.858;4.398;2023-02-12T09:59:29;13.02;;;10.38;;
40453;SDS011;26160;51.858;4.398;2023-02-12T10:02:02;12.63;;;9.90;;
40453;SDS011;26160;51.858;4.398;2023-02-12T10:04:37;11.97;;;10.70;;
40453;SDS011;26160;51.858;4.398;2023-02-12T10:07:06;12.20;;;10.90;;
40453;SDS011;26160;51.858;4.398;2023-02-12T10:12:31;10.53;;;9.43;;
40453;SDS011;26160;51.858;4.398;2023-02-12T10:17:52;11.43;;;9.87;;
40453;SDS011;26160;51.858;4.398;2023-02-12T10:28:50;10.37;;;9.27;;
40453;SDS011;26160;51.858;4.398;2023-02-12T10:31:23;13.03;;;10.20;;
40453;SDS011;26160;51.858;4.398;2023-02-12T10:33:51;13.97;;;10.40;;
40453;SDS011;26160;51.858;4.398;2023-02-12T10:37:02;12.47;;;9.70;;
40453;SDS011;26160;51.858;4.398;2023-02-12T10:39:20;12.30;;;9.38;;
40453;SDS011;26160;51.858;4.398;2023-02-12T10:41:51;11.03;;;9.57;;
40453;SDS011;26160;51.858;4.398;2023-02-12T10:44:39;11.40;;;9.70;;
40453;SDS011;26160;51.858;4.398;2023-02-12T10:47:05;13.60;;;9.20;;
40453;SDS011;26160;51.858;4.398;2023-02-12T10:49:33;11.30;;;9.00;;
40453;SDS011;26160;51.858;4.398;2023-02-12T10:52:01;10.73;;;9.40;;
40453;SDS011;26160;51.858;4.398;2023-02-12T10:54:44;11.70;;;9.40;;
40453;SDS011;26160;51.858;4.398;2023-02-12T10:57:17;11.20;;;8.83;;
40453;SDS011;26160;51.858;4.398;2023-02-12T11:00:14;11.60;;;9.83;;
40453;SDS011;26160;51.858;4.398;2023-02-12T11:05:32;10.27;;;8.97;;
40453;SDS011;26160;51.858;4.398;2023-02-12T11:08:00;10.30;;;9.13;;
40453;SDS011;26160;51.858;4.398;2023-02-12T11:10:27;9.55;;;8.50;;
40453;SDS011;26160;51.858;4.398;2023-02-12T11:13:00;10.77;;;8.77;;
40453;SDS011;26160;51.858;4.398;2023-02-12T11:15:37;10.30;;;8.50;;
40453;SDS011;26160;51.858;4.398;2023-02-12T11:18:19;11.40;;;8.40;;
40453;SDS011;26160;51.858;4.398;2023-02-12T11:20:56;9.77;;;7.85;;
40453;SDS011;26160;51.858;4.398;2023-02-12T11:23:30;10.35;;;9.15;;
40453;SDS011;26160;51.858;4.398;2023-02-12T11:26:08;10.30;;;8.90;;
40453;SDS011;26160;51.858;4.398;2023-02-12T11:31:32;10.10;;;8.07;;
40453;SDS011;26160;51.858;4.398;2023-02-12T11:34:08;9.37;;;7.83;;
40453;SDS011;26160;51.858;4.398;2023-02-12T11:36:41;9.90;;;7.73;;
40453;SDS011;26160;51.858;4.398;2023-02-12T11:39:54;11.30;;;8.57;;
40453;SDS011;26160;51.858;4.398;2023-02-12T11:42:07;9.90;;;8.40;;
40453;SDS011;26160;51.858;4.398;2023-02-12T11:44:56;10.35;;;8.52;;
40453;SDS011;26160;51.858;4.398;2023-02-12T11:47:46;10.20;;;9.17;;
40453;SDS011;26160;51.858;4.398;2023-02-12T11:53:52;11.15;;;9.30;;
40453;SDS011;26160;51.858;4.398;2023-02-12T11:56:21;13.93;;;10.80;;
40453;SDS011;26160;51.858;4.398;2023-02-12T11:58:47;15.73;;;11.15;;
40453;SDS011;26160;51.858;4.398;2023-02-12T12:01:20;15.20;;;11.83;;
40453;SDS011;26160;51.858;4.398;2023-02-12T12:04:02;15.07;;;12.18;;
40453;SDS011;26160;51.858;4.398;2023-02-12T12:06:40;15.45;;;12.50;;
40453;SDS011;26160;51.858;4.398;2023-02-12T12:14:37;14.60;;;13.07;;
40453;SDS011;26160;51.858;4.398;2023-02-12T12:17:40;15.00;;;12.80;;
40453;SDS011;26160;51.858;4.398;2023-02-12T12:20:31;17.93;;;13.87;;
40453;SDS011;26160;51.858;4.398;2023-02-12T12:23:19;18.37;;;14.77;;
40453;SDS011;26160;51.858;4.398;2023-02-12T12:25:58;20.77;;;17.47;;
40453;SDS011;26160;51.858;4.398;2023-02-12T12:28:49;19.40;;;16.17;;
40453;SDS011;26160;51.858;4.398;2023-02-12T12:31:33;18.70;;;15.73;;
40453;SDS011;26160;51.858;4.398;2023-02-12T12:34:11;22.67;;;17.07;;
40453;SDS011;26160;51.858;4.398;2023-02-12T12:45:18;20.90;;;17.80;;
40453;SDS011;26160;51.858;4.398;2023-02-12T12:58:44;25.80;;;20.80;;
40453;SDS011;26160;51.858;4.398;2023-02-12T13:06:48;25.60;;;21.70;;
40453;SDS011;26160;51.858;4.398;2023-02-12T13:09:34;30.23;;;23.10;;
40453;SDS011;26160;51.858;4.398;2023-02-12T13:15:43;31.47;;;22.17;;
40453;SDS011;26160;51.858;4.398;2023-02-12T13:21:28;30.67;;;22.87;;
40453;SDS011;26160;51.858;4.398;2023-02-12T13:24:24;32.10;;;24.27;;
40453;SDS011;26160;51.858;4.398;2023-02-12T13:26:58;29.93;;;23.37;;
40453;SDS011;26160;51.858;4.398;2023-02-12T13:29:36;32.33;;;23.87;;
40453;SDS011;26160;51.858;4.398;2023-02-12T13:32:14;31.27;;;24.77;;
40453;SDS011;26160;51.858;4.398;2023-02-12T13:34:46;29.47;;;22.53;;
40453;SDS011;26160;51.858;4.398;2023-02-12T13:37:15;31.60;;;23.13;;
40453;SDS011;26160;51.858;4.398;2023-02-12T13:39:44;32.30;;;25.10;;
40453;SDS011;26160;51.858;4.398;2023-02-12T13:42:16;29.77;;;23.20;;
40453;SDS011;26160;51.858;4.398;2023-02-12T13:51:04;30.17;;;22.73;;
40453;SDS011;26160;51.858;4.398;2023-02-12T13:56:06;31.47;;;24.03;;
40453;SDS011;26160;51.858;4.398;2023-02-12T14:01:04;28.03;;;23.17;;
40453;SDS011;26160;51.858;4.398;2023-02-12T14:03:32;31.47;;;23.63;;
40453;SDS011;26160;51.858;4.398;2023-02-12T14:06:11;29.90;;;24.03;;
40453;SDS011;26160;51.858;4.398;2023-02-12T14:08:52;31.03;;;23.70;;
40453;SDS011;26160;51.858;4.398;2023-02-12T14:11:32;30.77;;;24.30;;
40453;SDS011;26160;51.858;4.398;2023-02-12T14:14:10;25.67;;;21.20;;
40453;SDS011;26160;51.858;4.398;2023-02-12T14:16:38;25.67;;;21.20;;
40453;SDS011;26160;51.858;4.398;2023-02-12T14:22:10;32.53;;;23.17;;
40453;SDS011;26160;51.858;4.398;2023-02-12T14:24:50;29.77;;;23.27;;
40453;SDS011;26160;51.858;4.398;2023-02-12T14:27:32;29.93;;;23.50;;
40453;SDS011;26160;51.858;4.398;2023-02-12T14:42:40;27.90;;;20.70;;
40453;SDS011;26160;51.858;4.398;2023-02-12T14:46:47;33.20;;;24.40;;
40453;SDS011;26160;51.858;4.398;2023-02-12T14:49:21;29.07;;;22.83;;
40453;SDS011;26160;51.858;4.398;2023-02-12T14:51:57;31.23;;;23.77;;
40453;SDS011;26160;51.858;4.398;2023-02-12T14:54:40;29.87;;;22.00;;
40453;SDS011;26160;51.858;4.398;2023-02-12T15:00:19;31.53;;;22.80;;
40453;SDS011;26160;51.858;4.398;2023-02-12T15:02:39;28.63;;;22.00;;
40453;SDS011;26160;51.858;4.398;2023-02-12T15:05:12;27.83;;;21.97;;
40453;SDS011;26160;51.858;4.398;2023-02-12T15:07:59;28.03;;;22.80;;
40453;SDS011;26160;51.858;4.398;2023-02-12T15:10:34;29.30;;;21.92;;
40453;SDS011;26160;51.858;4.398;2023-02-12T15:21:20;29.93;;;22.77;;
40453;SDS011;26160;51.858;4.398;2023-02-12T15:23:57;30.47;;;22.30;;
40453;SDS011;26160;51.858;4.398;2023-02-12T15:26:36;30.37;;;21.70;;
40453;SDS011;26160;51.858;4.398;2023-02-12T15:29:06;29.17;;;21.93;;
40453;SDS011;26160;51.858;4.398;2023-02-12T15:31:41;24.67;;;20.00;;
40453;SDS011;26160;51.858;4.398;2023-02-12T15:34:12;29.37;;;22.80;;
40453;SDS011;26160;51.858;4.398;2023-02-12T15:36:44;27.63;;;20.83;;
40453;SDS011;26160;51.858;4.398;2023-02-12T15:39:15;29.77;;;21.50;;
40453;SDS011;26160;51.858;4.398;2023-02-12T15:41:47;31.03;;;22.87;;
40453;SDS011;26160;51.858;4.398;2023-02-12T15:44:22;33.23;;;22.27;;
40453;SDS011;26160;51.858;4.398;2023-02-12T15:49:25;29.33;;;21.47;;
40453;SDS011;26160;51.858;4.398;2023-02-12T15:51:53;29.43;;;20.87;;
40453;SDS011;26160;51.858;4.398;2023-02-12T15:54:20;24.33;;;19.23;;
40453;SDS011;26160;51.858;4.398;2023-02-12T15:56:47;33.40;;;22.00;;
40453;SDS011;26160;51.858;4.398;2023-02-12T15:59:18;32.07;;;21.47;;
40453;SDS011;26160;51.858;4.398;2023-02-12T16:07:35;32.20;;;21.83;;
40453;SDS011;26160;51.858;4.398;2023-02-12T16:10:17;31.23;;;21.55;;
40453;SDS011;26160;51.858;4.398;2023-02-12T16:12:52;28.33;;;20.73;;
40453;SDS011;26160;51.858;4.398;2023-02-12T16:15:28;31.00;;;20.23;;
40453;SDS011;26160;51.858;4.398;2023-02-12T16:17:59;29.70;;;20.27;;
40453;SDS011;26160;51.858;4.398;2023-02-12T16:20:31;31.87;;;22.23;;
40453;SDS011;26160;51.858;4.398;2023-02-12T16:22:58;30.00;;;20.53;;
40453;SDS011;26160;51.858;4.398;2023-02-12T16:25:31;28.75;;;21.27;;
40453;SDS011;26160;51.858;4.398;2023-02-12T16:28:06;30.17;;;21.17;;
40453;SDS011;26160;51.858;4.398;2023-02-12T16:36:13;31.23;;;21.50;;
40453;SDS011;26160;51.858;4.398;2023-02-12T16:39:05;29.40;;;21.85;;
40453;SDS011;26160;51.858;4.398;2023-02-12T16:41:52;33.67;;;24.27;;
40453;SDS011;26160;51.858;4.398;2023-02-12T16:44:27;33.50;;;22.10;;
40453;SDS011;26160;51.858;4.398;2023-02-12T16:46:57;34.07;;;22.97;;
40453;SDS011;26160;51.858;4.398;2023-02-12T16:49:25;31.20;;;22.63;;
40453;SDS011;26160;51.858;4.398;2023-02-12T16:51:52;31.50;;;22.87;;
40453;SDS011;26160;51.858;4.398;2023-02-12T16:54:38;29.80;;;21.50;;
40453;SDS011;26160;51.858;4.398;2023-02-12T16:57:04;33.57;;;22.93;;
40453;SDS011;26160;51.858;4.398;2023-02-12T16:59:35;33.53;;;22.57;;
40453;SDS011;26160;51.858;4.398;2023-02-12T17:02:09;31.60;;;22.20;;
40453;SDS011;26160;51.858;4.398;2023-02-12T17:04:47;32.00;;;22.23;;
40453;SDS011;26160;51.858;4.398;2023-02-12T17:07:23;34.87;;;22.73;;
40453;SDS011;26160;51.858;4.398;2023-02-12T17:09:52;33.23;;;21.57;;
40453;SDS011;26160;51.858;4.398;2023-02-12T17:12:19;36.53;;;23.90;;
40453;SDS011;26160;51.858;4.398;2023-02-12T17:14:47;35.27;;;22.33;;
40453;SDS011;26160;51.858;4.398;2023-02-12T17:17:13;36.10;;;23.30;;
40453;SDS011;26160;51.858;4.398;2023-02-12T17:19:39;35.33;;;23.50;;
40453;SDS011;26160;51.858;4.398;2023-02-12T17:22:06;35.27;;;24.10;;
40453;SDS011;26160;51.858;4.398;2023-02-12T17:24:41;37.80;;;23.90;;
40453;SDS011;26160;51.858;4.398;2023-02-12T17:27:07;40.97;;;25.43;;
40453;SDS011;26160;51.858;4.398;2023-02-12T17:29:36;37.93;;;25.57;;
40453;SDS011;26160;51.858;4.398;2023-02-12T17:32:02;35.97;;;24.07;;
40453;SDS011;26160;51.858;4.398;2023-02-12T17:34:28;38.33;;;24.57;;
40453;SDS011;26160;51.858;4.398;2023-02-12T17:36:54;33.03;;;23.07;;
40453;SDS011;26160;51.858;4.398;2023-02-12T17:39:23;37.80;;;24.37;;
40453;SDS011;26160;51.858;4.398;2023-02-12T17:41:49;35.33;;;24.33;;
40453;SDS011;26160;51.858;4.398;2023-02-12T17:44:16;34.10;;;22.93;;
40453;SDS011;26160;51.858;4.398;2023-02-12T17:46:42;33.87;;;22.93;;
40453;SDS011;26160;51.858;4.398;2023-02-12T17:49:10;34.27;;;23.87;;
40453;SDS011;26160;51.858;4.398;2023-02-12T17:51:36;34.30;;;22.30;;
40453;SDS011;26160;51.858;4.398;2023-02-12T17:56:59;33.10;;;23.00;;
40453;SDS011;26160;51.858;4.398;2023-02-12T17:59:29;31.40;;;22.07;;
40453;SDS011;26160;51.858;4.398;2023-02-12T18:05:24;37.50;;;22.93;;
40453;SDS011;26160;51.858;4.398;2023-02-12T18:07:53;34.20;;;22.97;;
40453;SDS011;26160;51.858;4.398;2023-02-12T18:10:20;35.23;;;23.90;;
40453;SDS011;26160;51.858;4.398;2023-02-12T18:12:46;35.80;;;23.03;;
40453;SDS011;26160;51.858;4.398;2023-02-12T18:15:12;33.90;;;22.37;;
40453;SDS011;26160;51.858;4.398;2023-02-12T18:17:42;35.00;;;23.90;;
40453;SDS011;26160;51.858;4.398;2023-02-12T18:20:13;32.17;;;21.83;;
40453;SDS011;26160;51.858;4.398;2023-02-12T18:22:39;37.10;;;23.80;;
40453;SDS011;26160;51.858;4.398;2023-02-12T18:25:06;35.97;;;23.67;;
40453;SDS011;26160;51.858;4.398;2023-02-12T18:30:04;41.37;;;25.03;;
40453;SDS011;26160;51.858;4.398;2023-02-12T18:32:39;37.03;;;25.83;;
40453;SDS011;26160;51.858;4.398;2023-02-12T18:35:06;36.40;;;25.40;;
40453;SDS011;26160;51.858;4.398;2023-02-12T18:37:34;38.20;;;25.43;;
40453;SDS011;26160;51.858;4.398;2023-02-12T18:40:00;38.83;;;25.47;;
40453;SDS011;26160;51.858;4.398;2023-02-12T18:42:26;36.73;;;25.70;;
40453;SDS011;26160;51.858;4.398;2023-02-12T18:44:53;37.13;;;24.63;;
40453;SDS011;26160;51.858;4.398;2023-02-12T18:47:20;41.30;;;25.30;;
40453;SDS011;26160;51.858;4.398;2023-02-12T18:49:46;35.80;;;24.47;;
40453;SDS011;26160;51.858;4.398;2023-02-12T18:52:19;32.47;;;22.23;;
40453;SDS011;26160;51.858;4.398;2023-02-12T18:54:53;36.10;;;23.92;;
40453;SDS011;26160;51.858;4.398;2023-02-12T18:57:20;41.60;;;25.50;;
40453;SDS011;26160;51.858;4.398;2023-02-12T18:59:46;37.60;;;25.20;;
40453;SDS011;26160;51.858;4.398;2023-02-12T19:02:12;40.10;;;26.50;;
40453;SDS011;26160;51.858;4.398;2023-02-12T19:04:43;38.17;;;23.93;;
40453;SDS011;26160;51.858;4.398;2023-02-12T19:07:16;37.80;;;24.70;;
40453;SDS011;26160;51.858;4.398;2023-02-12T19:12:17;39.65;;;24.80;;
40453;SDS011;26160;51.858;4.398;2023-02-12T19:14:49;39.10;;;26.70;;
40453;SDS011;26160;51.858;4.398;2023-02-12T19:17:29;40.67;;;25.90;;
40453;SDS011;26160;51.858;4.398;2023-02-12T19:22:24;38.50;;;25.30;;
40453;SDS011;26160;51.858;4.398;2023-02-12T19:24:50;41.53;;;25.97;;
40453;SDS011;26160;51.858;4.398;2023-02-12T19:27:23;44.53;;;25.67;;
40453;SDS011;26160;51.858;4.398;2023-02-12T19:29:51;36.80;;;25.30;;
40453;SDS011;26160;51.858;4.398;2023-02-12T19:32:22;38.93;;;25.53;;